Pagina principale
METAR-TAF:

METAR-TAF

Aeroporti :

Aeroporto di Forlì

Forlì, Italia

latitudine: 44-12N, longitudine: 012-04E, altezza: 27 m

Osservazione

Il bollettino è stato emesso 1 ora e 2 minuti fa, alle 11:50 UTC
Vento 4 kt da nord-ovest
Temperature 21°C
Umidità 73%
Pressione 1017 hPa
Visibilità: 8000 m
Nubi sparse ad un'altezza di 3000 ft

METAR: LIPK 271150Z 31004KT 8000 SCT030 21/16 Q1017

Ora: 14:52 (12:52 UTC)

Previsione

Il bollettino è stato emesso 1 ora e 52 minuti fa, alle 11:00 UTC
Previsione valida dal 27 alle 12 UTC al 28 alle 12 UTC
Vento 5 kt da direzioni variabili
Visibilità 10 km o più
Nubi sparse ad un'altezza di 3000 ft

TAF: LIPK 271100Z 2712/2812 VRB05KT 9999 SCT030

Osservazioni e previsioni meteorologiche di più di 4000 aeroporti (messaggi METAR e TAF).

Le stazioni disponibili sono rappresentate dai dischi gialli e rossi sulla carta.

Puntare il mouse per vedere il nome della stazione.

Clicca sopra per visualizzare le osservazioni e previsioni meteorologiche.

Per cambiare la mappa : fare clic sui pulsanti verdi con una croce nera per ingrandire, il pulsante verde con un trattino per diminuire, o sulla freccia verde per le mappe adiacenti.


METAR-TAF: